sensor_id;sensor_type;location;lat;lon;timestamp;temperature;humidity
10384;DHT22;5238;43.508;4.980;2023-03-01T00:01:13;6.40;91.30
10384;DHT22;5238;43.508;4.980;2023-03-01T00:03:41;6.40;91.30
10384;DHT22;5238;43.508;4.980;2023-03-01T00:06:15;6.40;91.30
10384;DHT22;5238;43.508;4.980;2023-03-01T00:08:43;6.40;91.30
10384;DHT22;5238;43.508;4.980;2023-03-01T00:11:13;6.40;91.30
10384;DHT22;5238;43.508;4.980;2023-03-01T00:13:46;6.40;91.30
10384;DHT22;5238;43.508;4.980;2023-03-01T00:16:14;6.40;91.30
10384;DHT22;5238;43.508;4.980;2023-03-01T00:18:44;6.40;91.30
10384;DHT22;5238;43.508;4.980;2023-03-01T00:21:13;6.40;91.30
10384;DHT22;5238;43.508;4.980;2023-03-01T00:23:40;6.40;91.30
10384;DHT22;5238;43.508;4.980;2023-03-01T00:26:10;6.40;91.30
10384;DHT22;5238;43.508;4.980;2023-03-01T00:28:46;6.40;91.30
10384;DHT22;5238;43.508;4.980;2023-03-01T00:31:35;6.40;91.30
10384;DHT22;5238;43.508;4.980;2023-03-01T00:34:05;6.40;91.30
10384;DHT22;5238;43.508;4.980;2023-03-01T00:36:36;6.40;91.30
10384;DHT22;5238;43.508;4.980;2023-03-01T00:39:05;6.40;91.30
10384;DHT22;5238;43.508;4.980;2023-03-01T00:41:45;6.40;91.30
10384;DHT22;5238;43.508;4.980;2023-03-01T00:44:21;6.40;91.30
10384;DHT22;5238;43.508;4.980;2023-03-01T00:46:53;6.30;91.30
10384;DHT22;5238;43.508;4.980;2023-03-01T00:49:24;6.30;91.30
10384;DHT22;5238;43.508;4.980;2023-03-01T00:51:53;6.30;91.30
10384;DHT22;5238;43.508;4.980;2023-03-01T00:54:24;6.30;91.30
10384;DHT22;5238;43.508;4.980;2023-03-01T00:56:51;6.20;91.30
10384;DHT22;5238;43.508;4.980;2023-03-01T00:59:21;6.20;91.30
10384;DHT22;5238;43.508;4.980;2023-03-01T01:01:49;6.20;91.30
10384;DHT22;5238;43.508;4.980;2023-03-01T01:04:17;6.20;91.30
10384;DHT22;5238;43.508;4.980;2023-03-01T01:06:46;6.20;91.30
10384;DHT22;5238;43.508;4.980;2023-03-01T01:09:16;6.10;91.30
10384;DHT22;5238;43.508;4.980;2023-03-01T01:11:53;6.10;91.30
10384;DHT22;5238;43.508;4.980;2023-03-01T01:14:25;6.10;91.30
10384;DHT22;5238;43.508;4.980;2023-03-01T01:17:02;6.10;91.30
10384;DHT22;5238;43.508;4.980;2023-03-01T01:19:30;6.00;91.30
10384;DHT22;5238;43.508;4.980;2023-03-01T01:22:03;6.00;91.30
10384;DHT22;5238;43.508;4.980;2023-03-01T01:24:30;6.00;91.30
10384;DHT22;5238;43.508;4.980;2023-03-01T01:27:05;6.00;91.30
10384;DHT22;5238;43.508;4.980;2023-03-01T01:29:37;6.00;91.30
10384;DHT22;5238;43.508;4.980;2023-03-01T01:32:13;6.00;91.30
10384;DHT22;5238;43.508;4.980;2023-03-01T01:34:44;6.00;91.30
10384;DHT22;5238;43.508;4.980;2023-03-01T01:37:21;5.90;91.30
10384;DHT22;5238;43.508;4.980;2023-03-01T01:39:55;5.90;91.30
10384;DHT22;5238;43.508;4.980;2023-03-01T01:42:30;5.90;91.30
10384;DHT22;5238;43.508;4.980;2023-03-01T01:45:28;5.90;91.30
10384;DHT22;5238;43.508;4.980;2023-03-01T01:48:02;5.80;91.30
10384;DHT22;5238;43.508;4.980;2023-03-01T01:50:40;5.80;91.30
10384;DHT22;5238;43.508;4.980;2023-03-01T01:53:10;5.70;91.30
10384;DHT22;5238;43.508;4.980;2023-03-01T01:55:57;5.70;91.30
10384;DHT22;5238;43.508;4.980;2023-03-01T01:58:30;5.70;91.30
10384;DHT22;5238;43.508;4.980;2023-03-01T02:01:08;5.70;91.30
10384;DHT22;5238;43.508;4.980;2023-03-01T02:03:48;5.70;91.30
10384;DHT22;5238;43.508;4.980;2023-03-01T02:06:24;5.70;91.30
10384;DHT22;5238;43.508;4.980;2023-03-01T02:09:04;5.70;91.30
10384;DHT22;5238;43.508;4.980;2023-03-01T02:11:33;5.60;91.30
10384;DHT22;5238;43.508;4.980;2023-03-01T02:14:05;5.60;91.30
10384;DHT22;5238;43.508;4.980;2023-03-01T02:16:39;5.60;91.30
10384;DHT22;5238;43.508;4.980;2023-03-01T02:19:39;5.60;91.30
10384;DHT22;5238;43.508;4.980;2023-03-01T02:22:18;5.50;91.30
10384;DHT22;5238;43.508;4.980;2023-03-01T02:25:05;5.50;91.30
10384;DHT22;5238;43.508;4.980;2023-03-01T02:27:41;5.50;91.30
10384;DHT22;5238;43.508;4.980;2023-03-01T02:30:18;5.40;91.30
10384;DHT22;5238;43.508;4.980;2023-03-01T02:33:07;5.40;91.30
10384;DHT22;5238;43.508;4.980;2023-03-01T02:35:40;5.40;91.30
10384;DHT22;5238;43.508;4.980;2023-03-01T02:38:11;5.40;91.30
10384;DHT22;5238;43.508;4.980;2023-03-01T02:40:48;5.40;91.30
10384;DHT22;5238;43.508;4.980;2023-03-01T02:43:19;5.40;91.30
10384;DHT22;5238;43.508;4.980;2023-03-01T02:45:56;5.40;91.30
10384;DHT22;5238;43.508;4.980;2023-03-01T02:48:28;5.40;91.30
10384;DHT22;5238;43.508;4.980;2023-03-01T02:51:05;5.40;91.30
10384;DHT22;5238;43.508;4.980;2023-03-01T02:53:39;5.40;91.30
10384;DHT22;5238;43.508;4.980;2023-03-01T02:56:14;5.40;91.30
10384;DHT22;5238;43.508;4.980;2023-03-01T02:58:43;5.40;91.30
10384;DHT22;5238;43.508;4.980;2023-03-01T03:01:19;5.40;91.30
10384;DHT22;5238;43.508;4.980;2023-03-01T03:04:02;5.50;91.30
10384;DHT22;5238;43.508;4.980;2023-03-01T03:06:39;5.50;91.30
10384;DHT22;5238;43.508;4.980;2023-03-01T03:09:07;5.50;91.30
10384;DHT22;5238;43.508;4.980;2023-03-01T03:11:50;5.50;91.30
10384;DHT22;5238;43.508;4.980;2023-03-01T03:14:22;5.50;91.30
10384;DHT22;5238;43.508;4.980;2023-03-01T03:16:57;5.50;91.30
10384;DHT22;5238;43.508;4.980;2023-03-01T03:19:24;5.60;91.30
10384;DHT22;5238;43.508;4.980;2023-03-01T03:21:54;5.60;91.30
10384;DHT22;5238;43.508;4.980;2023-03-01T03:24:25;5.60;91.30
10384;DHT22;5238;43.508;4.980;2023-03-01T03:27:03;5.60;91.30
10384;DHT22;5238;43.508;4.980;2023-03-01T03:29:39;5.60;91.30
10384;DHT22;5238;43.508;4.980;2023-03-01T03:32:13;5.60;91.30
10384;DHT22;5238;43.508;4.980;2023-03-01T03:34:48;5.60;91.30
10384;DHT22;5238;43.508;4.980;2023-03-01T03:37:19;5.60;91.30
10384;DHT22;5238;43.508;4.980;2023-03-01T03:40:01;5.60;91.30
10384;DHT22;5238;43.508;4.980;2023-03-01T03:42:40;5.60;91.30
10384;DHT22;5238;43.508;4.980;2023-03-01T03:45:12;5.60;91.30
10384;DHT22;5238;43.508;4.980;2023-03-01T03:47:44;5.70;91.30
10384;DHT22;5238;43.508;4.980;2023-03-01T03:50:14;5.70;91.30
10384;DHT22;5238;43.508;4.980;2023-03-01T03:52:41;5.70;91.30
10384;DHT22;5238;43.508;4.980;2023-03-01T03:55:10;5.60;91.30
10384;DHT22;5238;43.508;4.980;2023-03-01T03:57:37;5.60;91.30
10384;DHT22;5238;43.508;4.980;2023-03-01T04:00:07;5.60;91.30
10384;DHT22;5238;43.508;4.980;2023-03-01T04:02:38;5.60;91.30
10384;DHT22;5238;43.508;4.980;2023-03-01T04:07:56;5.60;91.30
10384;DHT22;5238;43.508;4.980;2023-03-01T04:10:39;5.60;91.30
10384;DHT22;5238;43.508;4.980;2023-03-01T04:13:11;5.60;91.30
10384;DHT22;5238;43.508;4.980;2023-03-01T04:15:48;5.60;91.30
10384;DHT22;5238;43.508;4.980;2023-03-01T04:18:30;5.60;91.30
10384;DHT22;5238;43.508;4.980;2023-03-01T04:21:03;5.60;91.30
10384;DHT22;5238;43.508;4.980;2023-03-01T04:23:30;5.60;91.30
10384;DHT22;5238;43.508;4.980;2023-03-01T04:25:59;5.60;91.30
10384;DHT22;5238;43.508;4.980;2023-03-01T04:28:30;5.60;91.30
10384;DHT22;5238;43.508;4.980;2023-03-01T04:31:05;5.60;91.30
10384;DHT22;5238;43.508;4.980;2023-03-01T04:33:38;5.60;91.30
10384;DHT22;5238;43.508;4.980;2023-03-01T04:36:10;5.60;91.30
10384;DHT22;5238;43.508;4.980;2023-03-01T04:38:38;5.60;91.30
10384;DHT22;5238;43.508;4.980;2023-03-01T04:41:15;5.60;91.30
10384;DHT22;5238;43.508;4.980;2023-03-01T04:43:43;5.60;91.30
10384;DHT22;5238;43.508;4.980;2023-03-01T04:46:16;5.60;91.30
10384;DHT22;5238;43.508;4.980;2023-03-01T04:48:52;5.60;91.30
10384;DHT22;5238;43.508;4.980;2023-03-01T04:51:27;5.60;91.30
10384;DHT22;5238;43.508;4.980;2023-03-01T04:54:01;5.50;91.30
10384;DHT22;5238;43.508;4.980;2023-03-01T04:56:33;5.50;91.30
10384;DHT22;5238;43.508;4.980;2023-03-01T04:59:00;5.50;91.30
10384;DHT22;5238;43.508;4.980;2023-03-01T05:01:42;5.50;91.30
10384;DHT22;5238;43.508;4.980;2023-03-01T05:04:19;5.50;91.30
10384;DHT22;5238;43.508;4.980;2023-03-01T05:06:50;5.50;91.30
10384;DHT22;5238;43.508;4.980;2023-03-01T05:09:19;5.50;91.30
10384;DHT22;5238;43.508;4.980;2023-03-01T05:11:50;5.40;91.30
10384;DHT22;5238;43.508;4.980;2023-03-01T05:14:21;5.40;91.30
10384;DHT22;5238;43.508;4.980;2023-03-01T05:16:51;5.40;91.30
10384;DHT22;5238;43.508;4.980;2023-03-01T05:19:18;5.40;91.30
10384;DHT22;5238;43.508;4.980;2023-03-01T05:21:49;5.40;91.30
10384;DHT22;5238;43.508;4.980;2023-03-01T05:24:32;5.30;91.30
10384;DHT22;5238;43.508;4.980;2023-03-01T05:27:11;5.30;91.30
10384;DHT22;5238;43.508;4.980;2023-03-01T05:29:47;5.30;91.30
10384;DHT22;5238;43.508;4.980;2023-03-01T05:32:14;5.30;91.30
10384;DHT22;5238;43.508;4.980;2023-03-01T05:34:53;5.30;91.30
10384;DHT22;5238;43.508;4.980;2023-03-01T05:37:22;5.30;91.30
10384;DHT22;5238;43.508;4.980;2023-03-01T05:39:51;5.30;91.30
10384;DHT22;5238;43.508;4.980;2023-03-01T05:42:18;5.30;91.30
10384;DHT22;5238;43.508;4.980;2023-03-01T05:44:46;5.20;91.30
10384;DHT22;5238;43.508;4.980;2023-03-01T05:47:15;5.20;91.30
10384;DHT22;5238;43.508;4.980;2023-03-01T05:49:46;5.20;91.30
10384;DHT22;5238;43.508;4.980;2023-03-01T05:52:15;5.20;91.30
10384;DHT22;5238;43.508;4.980;2023-03-01T05:54:49;5.20;91.30
10384;DHT22;5238;43.508;4.980;2023-03-01T05:57:17;5.20;91.30
10384;DHT22;5238;43.508;4.980;2023-03-01T05:59:49;5.20;91.30
10384;DHT22;5238;43.508;4.980;2023-03-01T06:02:21;5.20;91.30
10384;DHT22;5238;43.508;4.980;2023-03-01T06:04:48;5.20;91.30
10384;DHT22;5238;43.508;4.980;2023-03-01T06:07:16;5.20;91.30
10384;DHT22;5238;43.508;4.980;2023-03-01T06:09:52;5.10;91.30
10384;DHT22;5238;43.508;4.980;2023-03-01T06:12:19;5.10;91.30
10384;DHT22;5238;43.508;4.980;2023-03-01T06:14:46;5.10;91.30
10384;DHT22;5238;43.508;4.980;2023-03-01T06:17:14;5.10;91.30
10384;DHT22;5238;43.508;4.980;2023-03-01T06:19:41;5.10;91.30
10384;DHT22;5238;43.508;4.980;2023-03-01T06:22:08;5.10;91.30
10384;DHT22;5238;43.508;4.980;2023-03-01T06:24:35;5.10;91.30
10384;DHT22;5238;43.508;4.980;2023-03-01T06:27:04;5.10;91.30
10384;DHT22;5238;43.508;4.980;2023-03-01T06:29:31;5.10;91.30
10384;DHT22;5238;43.508;4.980;2023-03-01T06:31:58;5.10;91.30
10384;DHT22;5238;43.508;4.980;2023-03-01T06:34:25;5.10;91.30
10384;DHT22;5238;43.508;4.980;2023-03-01T06:36:53;5.20;91.30
10384;DHT22;5238;43.508;4.980;2023-03-01T06:39:36;5.20;91.30
10384;DHT22;5238;43.508;4.980;2023-03-01T06:42:19;5.20;91.30
10384;DHT22;5238;43.508;4.980;2023-03-01T06:44:46;5.30;91.30
10384;DHT22;5238;43.508;4.980;2023-03-01T06:47:21;5.30;91.30
10384;DHT22;5238;43.508;4.980;2023-03-01T06:49:48;5.40;91.30
10384;DHT22;5238;43.508;4.980;2023-03-01T06:52:15;5.40;91.30
10384;DHT22;5238;43.508;4.980;2023-03-01T06:54:42;5.50;91.30
10384;DHT22;5238;43.508;4.980;2023-03-01T06:57:10;5.50;91.30
10384;DHT22;5238;43.508;4.980;2023-03-01T06:59:38;5.50;91.30
10384;DHT22;5238;43.508;4.980;2023-03-01T07:02:05;5.60;91.30
10384;DHT22;5238;43.508;4.980;2023-03-01T07:04:32;5.60;91.30
10384;DHT22;5238;43.508;4.980;2023-03-01T07:06:59;5.60;91.30
10384;DHT22;5238;43.508;4.980;2023-03-01T07:09:26;5.70;91.30
10384;DHT22;5238;43.508;4.980;2023-03-01T07:11:54;5.70;91.30
10384;DHT22;5238;43.508;4.980;2023-03-01T07:14:21;5.70;91.30
10384;DHT22;5238;43.508;4.980;2023-03-01T07:16:51;5.70;91.30
10384;DHT22;5238;43.508;4.980;2023-03-01T07:19:20;5.70;91.30
10384;DHT22;5238;43.508;4.980;2023-03-01T07:21:50;5.70;91.30
10384;DHT22;5238;43.508;4.980;2023-03-01T07:24:17;5.70;91.30
10384;DHT22;5238;43.508;4.980;2023-03-01T07:26:48;5.80;91.30
10384;DHT22;5238;43.508;4.980;2023-03-01T07:29:23;5.80;91.30
10384;DHT22;5238;43.508;4.980;2023-03-01T07:31:52;5.80;91.30
10384;DHT22;5238;43.508;4.980;2023-03-01T07:34:19;5.80;91.30
10384;DHT22;5238;43.508;4.980;2023-03-01T07:36:46;5.80;91.30
10384;DHT22;5238;43.508;4.980;2023-03-01T07:39:13;5.80;91.30
10384;DHT22;5238;43.508;4.980;2023-03-01T07:41:41;5.80;91.30
10384;DHT22;5238;43.508;4.980;2023-03-01T07:44:08;5.80;91.30
10384;DHT22;5238;43.508;4.980;2023-03-01T07:46:35;5.90;91.30
10384;DHT22;5238;43.508;4.980;2023-03-01T07:49:04;5.90;91.30
10384;DHT22;5238;43.508;4.980;2023-03-01T07:51:31;5.90;91.30
10384;DHT22;5238;43.508;4.980;2023-03-01T07:53:58;5.90;91.30
10384;DHT22;5238;43.508;4.980;2023-03-01T07:56:25;5.90;91.30
10384;DHT22;5238;43.508;4.980;2023-03-01T07:58:52;6.00;91.30
10384;DHT22;5238;43.508;4.980;2023-03-01T08:01:21;6.10;91.30
10384;DHT22;5238;43.508;4.980;2023-03-01T08:03:48;6.20;91.30
10384;DHT22;5238;43.508;4.980;2023-03-01T08:06:17;6.60;91.30
10384;DHT22;5238;43.508;4.980;2023-03-01T08:08:45;6.90;91.30
10384;DHT22;5238;43.508;4.980;2023-03-01T08:11:13;7.20;91.30
10384;DHT22;5238;43.508;4.980;2023-03-01T08:13:41;7.50;91.30
10384;DHT22;5238;43.508;4.980;2023-03-01T08:16:11;7.80;91.30
10384;DHT22;5238;43.508;4.980;2023-03-01T08:18:38;8.10;91.30
10384;DHT22;5238;43.508;4.980;2023-03-01T08:21:07;8.30;91.30
10384;DHT22;5238;43.508;4.980;2023-03-01T08:23:35;8.40;91.30
10384;DHT22;5238;43.508;4.980;2023-03-01T08:26:04;8.60;91.30
10384;DHT22;5238;43.508;4.980;2023-03-01T08:28:31;8.70;91.30
10384;DHT22;5238;43.508;4.980;2023-03-01T08:30:59;8.80;91.30
10384;DHT22;5238;43.508;4.980;2023-03-01T08:33:26;8.90;91.30
10384;DHT22;5238;43.508;4.980;2023-03-01T08:36:01;8.80;91.30
10384;DHT22;5238;43.508;4.980;2023-03-01T08:38:28;8.90;91.30
10384;DHT22;5238;43.508;4.980;2023-03-01T08:40:59;9.10;91.30
10384;DHT22;5238;43.508;4.980;2023-03-01T08:43:26;9.20;91.30
10384;DHT22;5238;43.508;4.980;2023-03-01T08:45:53;9.30;91.30
10384;DHT22;5238;43.508;4.980;2023-03-01T08:48:20;9.40;91.30
10384;DHT22;5238;43.508;4.980;2023-03-01T08:50:48;9.40;91.30
10384;DHT22;5238;43.508;4.980;2023-03-01T08:53:15;9.40;91.30
10384;DHT22;5238;43.508;4.980;2023-03-01T08:55:49;9.40;91.30
10384;DHT22;5238;43.508;4.980;2023-03-01T08:58:26;9.30;91.30
10384;DHT22;5238;43.508;4.980;2023-03-01T09:00:56;9.20;91.30
10384;DHT22;5238;43.508;4.980;2023-03-01T09:03:23;9.20;91.30
10384;DHT22;5238;43.508;4.980;2023-03-01T09:06:02;9.10;91.30
10384;DHT22;5238;43.508;4.980;2023-03-01T09:08:39;9.00;91.30
10384;DHT22;5238;43.508;4.980;2023-03-01T09:11:08;9.00;91.30
10384;DHT22;5238;43.508;4.980;2023-03-01T09:13:46;8.90;91.30
10384;DHT22;5238;43.508;4.980;2023-03-01T09:16:20;8.90;91.30
10384;DHT22;5238;43.508;4.980;2023-03-01T09:18:52;9.00;91.30
10384;DHT22;5238;43.508;4.980;2023-03-01T09:21:23;9.10;91.30
10384;DHT22;5238;43.508;4.980;2023-03-01T09:23:58;9.40;91.30
10384;DHT22;5238;43.508;4.980;2023-03-01T09:26:31;9.70;91.30
10384;DHT22;5238;43.508;4.980;2023-03-01T09:29:04;10.00;91.30
10384;DHT22;5238;43.508;4.980;2023-03-01T09:31:31;10.30;91.30
10384;DHT22;5238;43.508;4.980;2023-03-01T09:34:07;10.70;91.30
10384;DHT22;5238;43.508;4.980;2023-03-01T09:36:36;11.10;91.30
10384;DHT22;5238;43.508;4.980;2023-03-01T09:39:05;11.30;91.30
10384;DHT22;5238;43.508;4.980;2023-03-01T09:42:02;11.50;91.30
10384;DHT22;5238;43.508;4.980;2023-03-01T09:44:38;11.50;91.30
10384;DHT22;5238;43.508;4.980;2023-03-01T09:47:16;11.60;91.30
10384;DHT22;5238;43.508;4.980;2023-03-01T09:52:39;11.70;91.30
10384;DHT22;5238;43.508;4.980;2023-03-01T09:55:10;11.60;91.30
10384;DHT22;5238;43.508;4.980;2023-03-01T09:57:46;11.60;91.30
10384;DHT22;5238;43.508;4.980;2023-03-01T10:00:26;11.70;91.30
10384;DHT22;5238;43.508;4.980;2023-03-01T10:03:02;11.70;91.30
10384;DHT22;5238;43.508;4.980;2023-03-01T10:05:56;11.70;91.30
10384;DHT22;5238;43.508;4.980;2023-03-01T10:08:31;11.70;91.30
10384;DHT22;5238;43.508;4.980;2023-03-01T10:11:24;11.70;91.30
10384;DHT22;5238;43.508;4.980;2023-03-01T10:13:58;11.80;91.30
10384;DHT22;5238;43.508;4.980;2023-03-01T10:16:41;11.80;91.30
10384;DHT22;5238;43.508;4.980;2023-03-01T10:19:31;11.70;91.30
10384;DHT22;5238;43.508;4.980;2023-03-01T10:22:18;11.70;91.30
10384;DHT22;5238;43.508;4.980;2023-03-01T10:24:50;11.70;91.30
10384;DHT22;5238;43.508;4.980;2023-03-01T10:27:29;11.60;91.30
10384;DHT22;5238;43.508;4.980;2023-03-01T10:30:16;11.50;91.30
10384;DHT22;5238;43.508;4.980;2023-03-01T10:32:49;11.50;91.30
10384;DHT22;5238;43.508;4.980;2023-03-01T10:35:20;11.70;91.30
10384;DHT22;5238;43.508;4.980;2023-03-01T10:38:02;12.10;91.30
10384;DHT22;5238;43.508;4.980;2023-03-01T10:40:31;12.40;91.30
10384;DHT22;5238;43.508;4.980;2023-03-01T10:43:04;12.80;91.30
10384;DHT22;5238;43.508;4.980;2023-03-01T10:45:43;13.10;91.30
10384;DHT22;5238;43.508;4.980;2023-03-01T10:48:15;13.40;91.30
10384;DHT22;5238;43.508;4.980;2023-03-01T10:50:48;13.70;91.30
10384;DHT22;5238;43.508;4.980;2023-03-01T10:53:34;14.00;91.30
10384;DHT22;5238;43.508;4.980;2023-03-01T10:56:07;14.20;91.30
10384;DHT22;5238;43.508;4.980;2023-03-01T10:58:40;14.30;91.30
10384;DHT22;5238;43.508;4.980;2023-03-01T11:01:25;14.20;91.30
10384;DHT22;5238;43.508;4.980;2023-03-01T11:04:11;14.20;91.30
10384;DHT22;5238;43.508;4.980;2023-03-01T11:06:40;14.30;91.30
10384;DHT22;5238;43.508;4.980;2023-03-01T11:09:15;14.30;91.30
10384;DHT22;5238;43.508;4.980;2023-03-01T11:11:43;14.40;91.30
10384;DHT22;5238;43.508;4.980;2023-03-01T11:14:16;14.40;91.30
10384;DHT22;5238;43.508;4.980;2023-03-01T11:16:45;14.30;91.30
10384;DHT22;5238;43.508;4.980;2023-03-01T11:19:20;14.30;91.30
10384;DHT22;5238;43.508;4.980;2023-03-01T11:21:55;14.30;91.30
10384;DHT22;5238;43.508;4.980;2023-03-01T11:24:40;14.30;91.30
10384;DHT22;5238;43.508;4.980;2023-03-01T11:27:16;14.30;91.30
10384;DHT22;5238;43.508;4.980;2023-03-01T11:29:51;14.20;91.30
10384;DHT22;5238;43.508;4.980;2023-03-01T11:32:32;14.10;91.30
10384;DHT22;5238;43.508;4.980;2023-03-01T11:35:19;14.10;91.30
10384;DHT22;5238;43.508;4.980;2023-03-01T11:37:58;14.00;91.30
10384;DHT22;5238;43.508;4.980;2023-03-01T11:40:31;14.00;91.30
10384;DHT22;5238;43.508;4.980;2023-03-01T11:43:19;13.90;91.30
10384;DHT22;5238;43.508;4.980;2023-03-01T11:46:08;13.70;91.30
10384;DHT22;5238;43.508;4.980;2023-03-01T11:48:56;13.60;91.30
10384;DHT22;5238;43.508;4.980;2023-03-01T11:51:44;13.60;91.30
10384;DHT22;5238;43.508;4.980;2023-03-01T11:54:27;13.60;91.30
10384;DHT22;5238;43.508;4.980;2023-03-01T11:57:03;13.60;91.30
10384;DHT22;5238;43.508;4.980;2023-03-01T12:00:02;13.50;91.30
10384;DHT22;5238;43.508;4.980;2023-03-01T12:05:59;13.60;91.30
10384;DHT22;5238;43.508;4.980;2023-03-01T12:08:41;13.60;91.30
10384;DHT22;5238;43.508;4.980;2023-03-01T12:11:22;13.60;91.30
10384;DHT22;5238;43.508;4.980;2023-03-01T12:14:22;13.50;91.30
10384;DHT22;5238;43.508;4.980;2023-03-01T12:17:06;13.50;91.30
10384;DHT22;5238;43.508;4.980;2023-03-01T12:19:56;13.50;91.30
10384;DHT22;5238;43.508;4.980;2023-03-01T12:22:31;13.60;91.30
10384;DHT22;5238;43.508;4.980;2023-03-01T12:25:16;13.60;91.30
10384;DHT22;5238;43.508;4.980;2023-03-01T12:30:59;13.70;91.30
10384;DHT22;5238;43.508;4.980;2023-03-01T12:33:41;13.70;91.30
10384;DHT22;5238;43.508;4.980;2023-03-01T12:36:44;13.80;91.30
10384;DHT22;5238;43.508;4.980;2023-03-01T12:39:28;13.90;91.30
10384;DHT22;5238;43.508;4.980;2023-03-01T12:42:07;13.90;91.30
10384;DHT22;5238;43.508;4.980;2023-03-01T12:47:55;14.00;91.30
10384;DHT22;5238;43.508;4.980;2023-03-01T12:50:32;14.10;91.30
10384;DHT22;5238;43.508;4.980;2023-03-01T12:53:22;14.10;91.30
10384;DHT22;5238;43.508;4.980;2023-03-01T12:55:58;14.10;91.30
10384;DHT22;5238;43.508;4.980;2023-03-01T12:58:37;14.10;91.30
10384;DHT22;5238;43.508;4.980;2023-03-01T13:01:19;14.10;91.30
10384;DHT22;5238;43.508;4.980;2023-03-01T13:04:32;14.00;91.30
10384;DHT22;5238;43.508;4.980;2023-03-01T13:07:25;14.00;91.30
10384;DHT22;5238;43.508;4.980;2023-03-01T13:10:16;13.90;91.30
10384;DHT22;5238;43.508;4.980;2023-03-01T13:13:00;13.90;91.30
10384;DHT22;5238;43.508;4.980;2023-03-01T13:15:33;13.90;91.30
10384;DHT22;5238;43.508;4.980;2023-03-01T13:18:02;13.90;91.30
10384;DHT22;5238;43.508;4.980;2023-03-01T13:23:26;13.80;91.30
10384;DHT22;5238;43.508;4.980;2023-03-01T13:26:02;13.80;91.30
10384;DHT22;5238;43.508;4.980;2023-03-01T13:28:39;13.80;91.30
10384;DHT22;5238;43.508;4.980;2023-03-01T13:31:55;13.80;91.30
10384;DHT22;5238;43.508;4.980;2023-03-01T13:34:58;13.90;91.30
10384;DHT22;5238;43.508;4.980;2023-03-01T13:37:37;13.90;91.30
10384;DHT22;5238;43.508;4.980;2023-03-01T13:43:30;13.80;91.30
10384;DHT22;5238;43.508;4.980;2023-03-01T13:46:00;13.80;91.30
10384;DHT22;5238;43.508;4.980;2023-03-01T13:48:31;13.70;91.30
10384;DHT22;5238;43.508;4.980;2023-03-01T13:51:05;13.60;91.30
10384;DHT22;5238;43.508;4.980;2023-03-01T13:56:22;13.60;91.30
10384;DHT22;5238;43.508;4.980;2023-03-01T13:58:59;13.50;91.30
10384;DHT22;5238;43.508;4.980;2023-03-01T14:01:34;13.50;91.30
10384;DHT22;5238;43.508;4.980;2023-03-01T14:04:24;13.50;91.30
10384;DHT22;5238;43.508;4.980;2023-03-01T14:06:51;13.40;91.30
10384;DHT22;5238;43.508;4.980;2023-03-01T14:09:21;13.40;91.30
10384;DHT22;5238;43.508;4.980;2023-03-01T14:12:19;13.40;91.30
10384;DHT22;5238;43.508;4.980;2023-03-01T14:14:56;13.30;91.30
10384;DHT22;5238;43.508;4.980;2023-03-01T14:17:44;13.30;91.30
10384;DHT22;5238;43.508;4.980;2023-03-01T14:20:18;13.40;91.30
10384;DHT22;5238;43.508;4.980;2023-03-01T14:22:55;13.40;91.30
10384;DHT22;5238;43.508;4.980;2023-03-01T14:25:51;13.40;91.30
10384;DHT22;5238;43.508;4.980;2023-03-01T14:28:35;13.40;91.30
10384;DHT22;5238;43.508;4.980;2023-03-01T14:31:39;13.40;91.30
10384;DHT22;5238;43.508;4.980;2023-03-01T14:34:19;13.40;91.30
10384;DHT22;5238;43.508;4.980;2023-03-01T14:36:47;13.40;91.30
10384;DHT22;5238;43.508;4.980;2023-03-01T14:39:22;13.40;91.30
10384;DHT22;5238;43.508;4.980;2023-03-01T14:41:51;13.40;91.30
10384;DHT22;5238;43.508;4.980;2023-03-01T14:44:24;13.40;91.30
10384;DHT22;5238;43.508;4.980;2023-03-01T14:46:57;13.50;91.30
10384;DHT22;5238;43.508;4.980;2023-03-01T14:49:31;13.50;91.30
10384;DHT22;5238;43.508;4.980;2023-03-01T14:52:02;13.50;91.30
10384;DHT22;5238;43.508;4.980;2023-03-01T14:54:37;13.60;91.30
10384;DHT22;5238;43.508;4.980;2023-03-01T14:57:12;13.60;91.30
10384;DHT22;5238;43.508;4.980;2023-03-01T14:59:41;13.70;91.30
10384;DHT22;5238;43.508;4.980;2023-03-01T15:02:21;13.70;91.30
10384;DHT22;5238;43.508;4.980;2023-03-01T15:07:58;13.80;91.30
10384;DHT22;5238;43.508;4.980;2023-03-01T15:10:36;13.80;91.30
10384;DHT22;5238;43.508;4.980;2023-03-01T15:13:12;13.80;91.30
10384;DHT22;5238;43.508;4.980;2023-03-01T15:15:41;13.70;91.30
10384;DHT22;5238;43.508;4.980;2023-03-01T15:18:18;13.70;91.30
10384;DHT22;5238;43.508;4.980;2023-03-01T15:20:46;13.70;91.30
10384;DHT22;5238;43.508;4.980;2023-03-01T15:23:21;13.70;91.30
10384;DHT22;5238;43.508;4.980;2023-03-01T15:25:50;13.70;91.30
10384;DHT22;5238;43.508;4.980;2023-03-01T15:28:24;13.70;91.30
10384;DHT22;5238;43.508;4.980;2023-03-01T15:30:55;13.70;91.30
10384;DHT22;5238;43.508;4.980;2023-03-01T15:33:37;13.70;91.30
10384;DHT22;5238;43.508;4.980;2023-03-01T15:36:30;13.60;91.30
10384;DHT22;5238;43.508;4.980;2023-03-01T15:39:00;13.50;91.30
10384;DHT22;5238;43.508;4.980;2023-03-01T15:41:29;13.50;91.30
10384;DHT22;5238;43.508;4.980;2023-03-01T15:43:58;13.40;91.30
10384;DHT22;5238;43.508;4.980;2023-03-01T15:46:28;13.30;91.30
10384;DHT22;5238;43.508;4.980;2023-03-01T15:48:58;13.20;91.30
10384;DHT22;5238;43.508;4.980;2023-03-01T15:51:31;13.20;91.30
10384;DHT22;5238;43.508;4.980;2023-03-01T15:54:03;13.10;91.30
10384;DHT22;5238;43.508;4.980;2023-03-01T15:56:31;13.00;91.30
10384;DHT22;5238;43.508;4.980;2023-03-01T15:59:00;13.00;91.30
10384;DHT22;5238;43.508;4.980;2023-03-01T16:01:28;12.90;91.30
10384;DHT22;5238;43.508;4.980;2023-03-01T16:04:17;12.80;91.30
10384;DHT22;5238;43.508;4.980;2023-03-01T16:06:49;12.80;91.30
10384;DHT22;5238;43.508;4.980;2023-03-01T16:09:22;12.70;91.30
10384;DHT22;5238;43.508;4.980;2023-03-01T16:11:50;12.60;91.30
10384;DHT22;5238;43.508;4.980;2023-03-01T16:14:19;12.50;91.30
10384;DHT22;5238;43.508;4.980;2023-03-01T16:16:46;12.50;91.30
10384;DHT22;5238;43.508;4.980;2023-03-01T16:19:15;12.50;91.30
10384;DHT22;5238;43.508;4.980;2023-03-01T16:21:42;12.40;91.30
10384;DHT22;5238;43.508;4.980;2023-03-01T16:24:12;12.40;91.30
10384;DHT22;5238;43.508;4.980;2023-03-01T16:26:41;12.40;91.30
10384;DHT22;5238;43.508;4.980;2023-03-01T16:29:08;12.30;91.30
10384;DHT22;5238;43.508;4.980;2023-03-01T16:31:35;12.30;91.30
10384;DHT22;5238;43.508;4.980;2023-03-01T16:34:03;12.30;91.30
10384;DHT22;5238;43.508;4.980;2023-03-01T16:36:30;12.20;91.30
10384;DHT22;5238;43.508;4.980;2023-03-01T16:38:58;12.10;91.30
10384;DHT22;5238;43.508;4.980;2023-03-01T16:41:27;12.10;91.30
10384;DHT22;5238;43.508;4.980;2023-03-01T16:43:56;12.10;91.30
10384;DHT22;5238;43.508;4.980;2023-03-01T16:46:25;12.10;91.30
10384;DHT22;5238;43.508;4.980;2023-03-01T16:48:53;12.00;91.30
10384;DHT22;5238;43.508;4.980;2023-03-01T16:51:21;11.90;91.30
10384;DHT22;5238;43.508;4.980;2023-03-01T16:53:50;11.90;91.30
10384;DHT22;5238;43.508;4.980;2023-03-01T16:56:18;11.80;91.30
10384;DHT22;5238;43.508;4.980;2023-03-01T16:58:45;11.80;91.30
10384;DHT22;5238;43.508;4.980;2023-03-01T17:01:15;11.70;91.30
10384;DHT22;5238;43.508;4.980;2023-03-01T17:03:43;11.60;91.30
10384;DHT22;5238;43.508;4.980;2023-03-01T17:06:13;11.60;91.30